Plainfield, Connecticut
Current Conditions -  °F | °C
As of 10:52 PM on Sunday 21 Dec 2014 (Local Time) from KIJD Reporting Station
Overcast Overcast  
Wind Chill: 29°   Ceiling: 4600
Heat Index: 33°   Visibility: 10mi
Dew Point: 30°   Wind: 5mph
Humidity: 89%   Direction: 20°NNE
Pressure: 30.34"   Gusts: NA
Location:  41.68°N, 71.91°W
Report Text: KIJD 220352Z AUTO 02004KT 10SM FEW020 OVC046 01/M01 A3034 RMK AO2 SLP277 T00061011
Loading
Personal Weather Stations






























Interactive Weather Map New forecast layout! Learn more

10-Day Weather Forecast

Advertisements
Track Severe Weather on mobile